createdAt,value
2023-04-23T00:01:05.603Z,60.09
2023-04-23T00:06:10.242Z,60.32
2023-04-23T00:11:12.248Z,60.91
2023-04-23T00:16:14.815Z,60.56
2023-04-23T00:21:16.365Z,61.45
2023-04-23T00:26:18.548Z,61.10
2023-04-23T00:31:22.617Z,61.49
2023-04-23T00:36:24.421Z,61.56
2023-04-23T00:41:28.304Z,62.21
2023-04-23T00:46:30.100Z,61.42
2023-04-23T00:51:34.547Z,62.26
2023-04-23T00:56:36.657Z,62.16
2023-04-23T01:01:38.315Z,62.36
2023-04-23T01:06:41.377Z,62.64
2023-04-23T01:11:44.525Z,63.29
2023-04-23T01:16:47.127Z,63.15
2023-04-23T01:21:50.393Z,62.79
2023-04-23T01:26:52.827Z,63.43
2023-04-23T01:31:55.663Z,63.16
2023-04-23T01:36:58.660Z,63.31
2023-04-23T01:42:01.438Z,64.46
2023-04-23T01:47:05.680Z,64.13
2023-04-23T01:52:08.782Z,64.83
2023-04-23T01:57:10.809Z,64.37
2023-04-23T02:02:13.999Z,64.62
2023-04-23T02:07:15.640Z,64.75
2023-04-23T02:12:17.192Z,65.00
2023-04-23T02:17:21.653Z,65.32
2023-04-23T02:22:25.220Z,64.66
2023-04-23T02:27:26.868Z,64.41
2023-04-23T02:32:28.373Z,64.46
2023-04-23T02:37:29.891Z,65.52
2023-04-23T02:42:31.431Z,64.96
2023-04-23T02:47:33.012Z,64.96
2023-04-23T02:52:34.741Z,65.49
2023-04-23T02:57:37.099Z,65.22
2023-04-23T03:02:38.740Z,65.65
2023-04-23T03:07:40.739Z,65.61
2023-04-23T03:12:42.357Z,66.11
2023-04-23T03:17:43.899Z,66.28
2023-04-23T03:22:46.089Z,67.66
2023-04-23T03:27:47.601Z,66.90
2023-04-23T03:32:50.687Z,67.19
2023-04-23T03:37:52.817Z,67.65
2023-04-23T03:42:54.324Z,68.26
2023-04-23T03:47:55.950Z,67.38
2023-04-23T03:52:57.523Z,67.63
2023-04-23T03:58:01.721Z,67.95
2023-04-23T04:03:04.278Z,67.57
2023-04-23T04:08:06.293Z,66.86
2023-04-23T04:13:07.886Z,66.93
2023-04-23T04:18:09.879Z,66.91
2023-04-23T04:23:11.658Z,66.18
2023-04-23T04:28:13.164Z,66.37
2023-04-23T04:33:15.083Z,66.27
2023-04-23T04:38:16.551Z,66.24
2023-04-23T04:43:18.531Z,65.83
2023-04-23T04:48:20.713Z,66.07
2023-04-23T04:53:22.502Z,65.85
2023-04-23T04:58:24.069Z,65.51
2023-04-23T05:03:26.934Z,65.28
2023-04-23T05:08:28.678Z,65.01
2023-04-23T05:13:30.176Z,64.76
2023-04-23T05:18:31.649Z,64.74
2023-04-23T05:23:34.687Z,64.43
2023-04-23T05:28:36.359Z,64.28
2023-04-23T05:33:49.105Z,64.39
2023-04-23T05:38:52.685Z,63.91
2023-04-23T05:43:54.193Z,63.76
2023-04-23T05:48:55.761Z,63.24
2023-04-23T05:53:57.292Z,63.12
2023-04-23T05:58:58.866Z,62.91
2023-04-23T06:04:00.494Z,62.45
2023-04-23T06:09:02.484Z,62.24
2023-04-23T06:14:04.702Z,62.06
2023-04-23T06:19:06.656Z,62.04
2023-04-23T06:24:08.229Z,62.17
2023-04-23T06:29:09.756Z,61.63
2023-04-23T06:34:11.274Z,61.38
2023-04-23T06:39:12.792Z,61.22
2023-04-23T06:44:14.268Z,60.84
2023-04-23T06:49:16.046Z,60.42
2023-04-23T06:54:17.548Z,60.28
2023-04-23T06:59:19.723Z,59.56
2023-04-23T07:04:21.313Z,59.12
2023-04-23T07:09:23.344Z,59.01
2023-04-23T07:14:25.351Z,57.67
2023-04-23T07:19:27.609Z,56.90
2023-04-23T07:24:29.406Z,57.08
2023-04-23T07:29:31.003Z,56.04
2023-04-23T07:34:32.666Z,55.20
2023-04-23T07:39:34.521Z,54.14
2023-04-23T07:44:36.290Z,53.51
2023-04-23T07:49:37.798Z,53.30
2023-04-23T07:54:39.430Z,54.05
2023-04-23T07:59:41.186Z,54.18
2023-04-23T08:04:43.094Z,53.10
2023-04-23T08:09:45.309Z,53.10
2023-04-23T08:14:47.712Z,53.05
2023-04-23T08:19:49.443Z,52.06
2023-04-23T08:24:50.919Z,52.26
2023-04-23T08:29:52.392Z,52.41
2023-04-23T08:34:53.919Z,51.15
2023-04-23T08:39:55.419Z,51.58
2023-04-23T08:44:57.654Z,50.90
2023-04-23T08:49:59.862Z,48.94
2023-04-23T08:55:04.909Z,49.14
2023-04-23T09:00:08.760Z,48.84
2023-04-23T09:05:11.356Z,48.76
2023-04-23T09:10:17.740Z,47.71
2023-04-23T09:15:20.273Z,47.37
2023-04-23T09:20:21.778Z,47.45
2023-04-23T09:25:24.644Z,46.32
2023-04-23T09:30:34.607Z,45.44
2023-04-23T09:35:39.078Z,45.76
2023-04-23T09:40:42.303Z,45.96
2023-04-23T09:45:50.373Z,44.27
2023-04-23T09:50:55.768Z,42.67
2023-04-23T09:55:57.292Z,43.40
2023-04-23T10:01:09.596Z,43.14
2023-04-23T10:06:30.501Z,42.87
2023-04-23T10:11:38.265Z,42.63
2023-04-23T10:16:48.593Z,41.13
2023-04-23T10:22:02.273Z,39.68
2023-04-23T10:27:23.961Z,39.77
2023-04-23T10:32:30.814Z,41.06
2023-04-23T10:37:33.488Z,40.15
2023-04-23T10:42:35.799Z,40.26
2023-04-23T10:47:37.876Z,39.52
2023-04-23T10:52:39.473Z,39.64
2023-04-23T10:58:01.665Z,38.85
2023-04-23T11:03:03.977Z,39.37
2023-04-23T11:08:18.834Z,39.06
2023-04-23T11:13:25.069Z,38.43
2023-04-23T11:18:27.555Z,38.29
2023-04-23T11:23:32.480Z,37.52
2023-04-23T11:28:36.653Z,36.68
2023-04-23T11:33:38.609Z,37.03
2023-04-23T11:38:40.090Z,37.32
2023-04-23T11:43:43.374Z,36.71
2023-04-23T11:48:44.908Z,36.56
2023-04-23T11:53:47.393Z,36.87
2023-04-23T11:58:58.849Z,36.36
2023-04-23T12:04:01.088Z,36.75
2023-04-23T12:09:03.592Z,36.17
2023-04-23T12:14:05.450Z,35.57
2023-04-23T12:19:21.357Z,36.16
2023-04-23T12:24:24.418Z,35.79
2023-04-23T12:29:26.889Z,35.19
2023-04-23T12:34:28.456Z,34.79
2023-04-23T12:39:35.027Z,35.78
2023-04-23T12:44:39.366Z,34.97
2023-04-23T12:49:43.208Z,34.85
2023-04-23T12:54:45.153Z,34.73
2023-04-23T12:59:46.624Z,34.33
2023-04-23T13:04:48.211Z,34.13
2023-04-23T13:09:49.693Z,33.36
2023-04-23T13:14:51.219Z,35.00
2023-04-23T13:19:57.246Z,33.35
2023-04-23T13:24:59.691Z,33.98
2023-04-23T13:30:01.200Z,33.43
2023-04-23T13:35:05.051Z,33.01
2023-04-23T13:40:07.656Z,32.99
2023-04-23T13:45:09.650Z,32.21
2023-04-23T13:50:11.681Z,32.47
2023-04-23T13:55:13.204Z,32.72
2023-04-23T14:00:16.038Z,32.55
2023-04-23T14:05:17.678Z,31.55
2023-04-23T14:10:19.273Z,32.17
2023-04-23T14:15:20.923Z,31.39
2023-04-23T14:20:22.816Z,31.69
2023-04-23T14:25:35.805Z,31.29
2023-04-23T14:30:41.016Z,30.63
2023-04-23T14:35:43.589Z,31.21
2023-04-23T14:40:45.512Z,31.40
2023-04-23T14:45:47.461Z,31.11
2023-04-23T14:50:49.078Z,30.08
2023-04-23T14:55:51.368Z,30.41
2023-04-23T15:00:53.226Z,30.54
2023-04-23T15:05:54.788Z,30.42
2023-04-23T15:10:56.268Z,30.68
2023-04-23T15:16:03.078Z,30.66
2023-04-23T15:21:04.602Z,30.67
2023-04-23T15:26:06.368Z,30.64
2023-04-23T15:31:09.216Z,30.20
2023-04-23T15:36:10.688Z,30.52
2023-04-23T15:41:14.843Z,30.74
2023-04-23T15:46:16.395Z,30.65
2023-04-23T15:51:18.039Z,30.57
2023-04-23T15:56:19.595Z,30.73
2023-04-23T16:01:21.548Z,30.54
2023-04-23T16:06:23.240Z,30.11
2023-04-23T16:11:27.734Z,30.48
2023-04-23T16:16:30.862Z,30.47
2023-04-23T16:21:32.788Z,31.01
2023-04-23T16:26:34.833Z,30.69
2023-04-23T16:31:36.923Z,31.60
2023-04-23T16:36:38.687Z,31.17
2023-04-23T16:41:40.416Z,31.74
2023-04-23T16:46:42.124Z,32.32
2023-04-23T16:51:43.689Z,32.27
2023-04-23T16:56:46.093Z,32.82
2023-04-23T17:01:47.553Z,32.64
2023-04-23T17:06:49.324Z,33.03
2023-04-23T17:11:51.105Z,33.33
2023-04-23T17:16:52.594Z,33.49
2023-04-23T17:21:54.082Z,33.86
2023-04-23T17:26:56.885Z,33.78
2023-04-23T17:31:58.689Z,34.29
2023-04-23T17:37:00.285Z,34.87
2023-04-23T17:42:02.087Z,35.55
2023-04-23T17:47:03.648Z,36.22
2023-04-23T17:52:06.408Z,36.38
2023-04-23T17:57:09.834Z,36.70
2023-04-23T18:02:11.618Z,37.06
2023-04-23T18:07:13.470Z,37.59
2023-04-23T18:12:14.981Z,37.68
2023-04-23T18:17:17.520Z,37.90
2023-04-23T18:22:19.660Z,38.17
2023-04-23T18:27:21.128Z,38.24
2023-04-23T18:32:33.637Z,38.68
2023-04-23T18:37:59.325Z,38.78
2023-04-23T18:43:01.543Z,39.19
2023-04-23T18:48:23.372Z,39.21
2023-04-23T18:53:25.073Z,39.44
2023-04-23T18:58:27.277Z,39.49
2023-04-23T19:03:31.418Z,39.76
2023-04-23T19:08:34.053Z,40.07
2023-04-23T19:13:35.628Z,40.17
2023-04-23T19:18:37.399Z,40.35
2023-04-23T19:23:39.048Z,40.48
2023-04-23T19:28:40.625Z,40.60
2023-04-23T19:33:45.402Z,40.74
2023-04-23T19:38:47.056Z,40.71
2023-04-23T19:43:48.541Z,41.42
2023-04-23T19:48:50.041Z,41.20
2023-04-23T19:53:54.101Z,41.65
2023-04-23T19:58:55.944Z,41.85
2023-04-23T20:03:57.613Z,41.83
2023-04-23T20:09:18.104Z,42.22
2023-04-23T20:14:19.945Z,42.46
2023-04-23T20:19:21.682Z,42.75
2023-04-23T20:24:23.207Z,42.67
2023-04-23T20:29:24.881Z,43.06
2023-04-23T20:34:26.359Z,43.12
2023-04-23T20:39:28.046Z,43.35
2023-04-23T20:44:29.622Z,43.66
2023-04-23T20:49:32.266Z,43.79
2023-04-23T20:54:34.951Z,44.44
2023-04-23T20:59:36.604Z,44.42
2023-04-23T21:04:38.536Z,44.92
2023-04-23T21:09:54.104Z,44.78
2023-04-23T21:14:55.647Z,45.14
2023-04-23T21:19:57.202Z,45.41
2023-04-23T21:24:58.711Z,45.43
2023-04-23T21:30:18.027Z,45.88
2023-04-23T21:35:19.726Z,46.09
2023-04-23T21:40:21.238Z,46.65
2023-04-23T21:45:22.862Z,46.83
2023-04-23T21:50:25.637Z,47.60
2023-04-23T21:55:28.948Z,46.99
2023-04-23T22:00:30.489Z,47.61
2023-04-23T22:05:32.049Z,47.66
2023-04-23T22:10:34.040Z,47.71
2023-04-23T22:15:36.342Z,47.67
2023-04-23T22:20:39.135Z,48.41
2023-04-23T22:25:40.643Z,48.26
2023-04-23T22:30:42.563Z,48.27
2023-04-23T22:35:44.055Z,49.05
2023-04-23T22:40:45.569Z,48.83
2023-04-23T22:45:47.128Z,49.47
2023-04-23T22:50:51.155Z,49.13
2023-04-23T22:55:52.899Z,49.44
2023-04-23T23:00:55.552Z,50.54
2023-04-23T23:05:57.230Z,50.15
2023-04-23T23:10:58.768Z,50.39
2023-04-23T23:16:04.696Z,50.28
2023-04-23T23:21:06.535Z,50.45
2023-04-23T23:26:08.304Z,51.67
2023-04-23T23:31:10.146Z,50.60
2023-04-23T23:36:11.972Z,50.68
2023-04-23T23:41:13.448Z,50.94
2023-04-23T23:46:18.333Z,50.73
2023-04-23T23:51:20.275Z,50.68
2023-04-23T23:56:21.905Z,51.98
